createdAt,value
2022-12-12T00:00:15.195Z,99.90
2022-12-12T00:02:50.269Z,99.90
2022-12-12T00:05:18.801Z,99.90
2022-12-12T00:07:45.930Z,99.90
2022-12-12T00:10:13.404Z,99.90
2022-12-12T00:12:40.743Z,99.90
2022-12-12T00:15:08.652Z,99.90
2022-12-12T00:17:35.575Z,99.90
2022-12-12T00:20:02.539Z,99.90
2022-12-12T00:22:29.382Z,99.90
2022-12-12T00:24:56.306Z,99.90
2022-12-12T00:27:23.293Z,99.90
2022-12-12T00:29:54.305Z,99.90
2022-12-12T00:32:21.544Z,99.90
2022-12-12T00:34:48.514Z,99.90
2022-12-12T00:37:15.953Z,99.90
2022-12-12T00:39:42.878Z,99.90
2022-12-12T00:42:10.067Z,99.90
2022-12-12T00:44:37.385Z,99.90
2022-12-12T00:47:04.498Z,99.90
2022-12-12T00:49:31.584Z,99.90
2022-12-12T00:51:58.602Z,99.90
2022-12-12T00:54:25.742Z,99.90
2022-12-12T00:56:52.983Z,99.90
2022-12-12T00:59:19.980Z,99.90
2022-12-12T01:01:47.638Z,99.90
2022-12-12T01:04:14.913Z,99.90
2022-12-12T01:06:41.952Z,99.90
2022-12-12T01:09:09.059Z,99.90
2022-12-12T01:11:36.214Z,99.90
2022-12-12T01:14:03.200Z,99.90
2022-12-12T01:16:30.799Z,99.90
2022-12-12T01:18:58.299Z,99.90
2022-12-12T01:21:25.477Z,99.90
2022-12-12T01:23:52.625Z,99.90
2022-12-12T01:26:23.577Z,99.90
2022-12-12T01:28:51.690Z,99.90
2022-12-12T01:31:18.878Z,99.90
2022-12-12T01:33:46.430Z,99.90
2022-12-12T01:36:19.774Z,99.90
2022-12-12T01:38:48.830Z,99.90
2022-12-12T01:41:17.217Z,99.90
2022-12-12T01:43:45.303Z,99.90
2022-12-12T01:46:35.345Z,99.90
2022-12-12T01:49:13.313Z,99.90
2022-12-12T01:51:41.789Z,99.90
2022-12-12T01:54:13.432Z,99.90
2022-12-12T01:56:43.029Z,99.90
2022-12-12T01:59:14.208Z,99.90
2022-12-12T02:01:42.287Z,99.90
2022-12-12T02:04:10.632Z,99.90
2022-12-12T02:06:38.391Z,99.90
2022-12-12T02:09:10.764Z,99.90
2022-12-12T02:11:46.718Z,99.90
2022-12-12T02:14:17.975Z,99.90
2022-12-12T02:17:04.882Z,99.90
2022-12-12T02:19:49.938Z,99.90
2022-12-12T02:22:40.007Z,99.90
2022-12-12T02:25:09.938Z,99.90
2022-12-12T02:27:48.886Z,99.90
2022-12-12T02:30:36.001Z,99.90
2022-12-12T02:33:26.794Z,99.90
2022-12-12T02:36:23.060Z,99.90
2022-12-12T02:39:24.059Z,99.90
2022-12-12T02:42:28.659Z,99.90
2022-12-12T02:45:22.763Z,99.90
2022-12-12T02:48:03.333Z,99.90
2022-12-12T02:50:31.709Z,99.90
2022-12-12T02:53:00.497Z,99.90
2022-12-12T02:55:27.742Z,99.90
2022-12-12T02:57:55.390Z,99.90
2022-12-12T03:00:22.432Z,99.90
2022-12-12T03:03:23.448Z,99.90
2022-12-12T03:06:41.216Z,99.90
2022-12-12T03:09:30.782Z,99.90
2022-12-12T03:12:16.991Z,99.90
2022-12-12T03:15:06.033Z,99.90
2022-12-12T03:17:49.631Z,99.90
2022-12-12T03:20:47.830Z,99.90
2022-12-12T03:23:21.234Z,99.90
2022-12-12T03:25:56.654Z,99.90
2022-12-12T03:28:52.986Z,99.90
2022-12-12T03:31:25.401Z,99.90
2022-12-12T03:34:03.388Z,99.90
2022-12-12T03:36:42.640Z,99.90
2022-12-12T03:39:15.914Z,99.90
2022-12-12T03:41:52.206Z,99.90
2022-12-12T03:44:49.350Z,99.90
2022-12-12T03:47:21.986Z,99.90
2022-12-12T03:50:02.184Z,99.90
2022-12-12T03:52:45.941Z,99.90
2022-12-12T03:55:20.505Z,99.90
2022-12-12T03:58:02.445Z,99.90
2022-12-12T04:00:32.226Z,99.90
2022-12-12T04:03:03.159Z,99.90
2022-12-12T04:05:37.561Z,99.90
2022-12-12T04:08:18.823Z,99.90
2022-12-12T04:11:12.220Z,99.90
2022-12-12T04:13:53.090Z,99.90
2022-12-12T04:16:36.699Z,99.90
2022-12-12T04:19:37.657Z,99.90
2022-12-12T04:22:27.503Z,99.90
2022-12-12T04:25:09.736Z,99.90
2022-12-12T04:27:47.263Z,99.90
2022-12-12T04:30:19.044Z,99.90
2022-12-12T04:32:49.673Z,99.90
2022-12-12T04:35:18.927Z,99.90
2022-12-12T04:37:54.063Z,99.90
2022-12-12T04:40:29.107Z,99.90
2022-12-12T04:43:09.869Z,99.90
2022-12-12T04:45:41.682Z,99.90
2022-12-12T04:48:14.417Z,99.90
2022-12-12T04:50:44.422Z,99.90
2022-12-12T04:53:18.627Z,99.90
2022-12-12T04:55:55.544Z,99.90
2022-12-12T04:58:23.298Z,99.90
2022-12-12T05:00:53.178Z,99.90
2022-12-12T05:03:46.473Z,99.90
2022-12-12T05:06:21.020Z,99.90
2022-12-12T05:08:52.024Z,99.90
2022-12-12T05:11:21.334Z,99.90
2022-12-12T05:13:49.912Z,99.90
2022-12-12T05:16:32.623Z,99.90
2022-12-12T05:19:00.127Z,99.90
2022-12-12T05:21:27.232Z,99.90
2022-12-12T05:23:54.385Z,99.90
2022-12-12T05:26:28.729Z,99.90
2022-12-12T05:28:56.384Z,99.90
2022-12-12T05:31:23.248Z,99.90
2022-12-12T05:33:50.704Z,99.90
2022-12-12T05:36:17.562Z,99.90
2022-12-12T05:38:44.774Z,99.90
2022-12-12T05:41:11.932Z,99.90
2022-12-12T05:43:38.761Z,99.90
2022-12-12T05:46:06.624Z,99.90
2022-12-12T05:48:34.351Z,99.90
2022-12-12T05:51:02.347Z,99.90
2022-12-12T05:53:29.401Z,99.90
2022-12-12T05:55:56.640Z,99.90
2022-12-12T05:58:24.889Z,99.90
2022-12-12T06:00:52.490Z,99.90
2022-12-12T06:03:19.716Z,99.90
2022-12-12T06:05:47.098Z,99.90
2022-12-12T06:08:14.271Z,99.90
2022-12-12T06:10:41.247Z,99.90
2022-12-12T06:13:08.052Z,99.90
2022-12-12T06:15:38.517Z,99.90
2022-12-12T06:18:05.345Z,99.90
2022-12-12T06:20:32.603Z,99.90
2022-12-12T06:22:59.425Z,99.90
2022-12-12T06:25:26.431Z,99.90
2022-12-12T06:27:53.811Z,99.90
2022-12-12T06:30:21.406Z,99.90
2022-12-12T06:32:48.340Z,99.90
2022-12-12T06:35:16.364Z,99.90
2022-12-12T06:37:43.423Z,99.90
2022-12-12T06:40:14.007Z,99.90
2022-12-12T06:42:47.725Z,99.90
2022-12-12T06:45:17.877Z,99.90
2022-12-12T06:47:44.879Z,99.90
2022-12-12T06:50:12.537Z,99.90
2022-12-12T06:52:39.594Z,99.90
2022-12-12T06:55:06.996Z,99.90
2022-12-12T06:57:36.829Z,99.90
2022-12-12T07:00:09.907Z,99.90
2022-12-12T07:02:39.750Z,99.90
2022-12-12T07:05:08.115Z,99.90
2022-12-12T07:07:35.157Z,99.90
2022-12-12T07:10:02.098Z,99.90
2022-12-12T07:12:28.976Z,99.90
2022-12-12T07:14:55.971Z,99.90
2022-12-12T07:17:23.450Z,99.90
2022-12-12T07:25:19.469Z,99.90
2022-12-12T07:30:28.041Z,99.90
2022-12-12T07:32:54.869Z,99.90
2022-12-12T07:35:21.714Z,99.90
2022-12-12T07:37:48.819Z,99.90
2022-12-12T07:40:18.390Z,99.90
2022-12-12T07:42:45.234Z,99.90
2022-12-12T07:45:17.857Z,99.90
2022-12-12T07:47:53.254Z,99.90
2022-12-12T07:50:20.423Z,99.90
2022-12-12T07:52:49.938Z,99.90
2022-12-12T07:55:19.489Z,99.90
2022-12-12T08:00:40.937Z,99.90
2022-12-12T08:08:24.755Z,99.90
2022-12-12T08:10:51.644Z,99.90
2022-12-12T08:13:18.415Z,99.90
2022-12-12T08:15:45.237Z,99.90
2022-12-12T08:18:12.059Z,99.90
2022-12-12T08:20:41.894Z,99.90
2022-12-12T08:23:08.659Z,99.90
2022-12-12T08:25:35.951Z,99.90
2022-12-12T08:28:02.920Z,99.90
2022-12-12T08:30:29.738Z,99.90
2022-12-12T08:33:01.353Z,99.90
2022-12-12T08:35:32.516Z,99.90
2022-12-12T08:38:00.023Z,99.90
2022-12-12T08:40:26.996Z,99.90
2022-12-12T08:42:53.971Z,99.90
2022-12-12T08:45:20.894Z,99.90
2022-12-12T08:47:47.712Z,99.90
2022-12-12T08:50:14.596Z,99.90
2022-12-12T08:52:41.378Z,99.90
2022-12-12T08:55:08.624Z,99.90
2022-12-12T08:57:35.396Z,99.90
2022-12-12T09:00:03.354Z,99.90
2022-12-12T09:02:30.209Z,99.90
2022-12-12T09:04:57.100Z,99.90
2022-12-12T09:07:23.864Z,99.90
2022-12-12T09:09:50.627Z,99.90
2022-12-12T09:12:17.522Z,99.90
2022-12-12T09:14:44.301Z,99.90
2022-12-12T09:17:11.092Z,99.90
2022-12-12T09:19:37.958Z,99.90
2022-12-12T09:22:04.738Z,99.90
2022-12-12T09:24:31.562Z,99.90
2022-12-12T09:26:58.417Z,99.90
2022-12-12T09:29:25.395Z,99.90
2022-12-12T09:31:52.222Z,99.90
2022-12-12T09:34:19.175Z,99.90
2022-12-12T09:36:45.982Z,99.90
2022-12-12T09:39:12.795Z,99.90
2022-12-12T09:41:40.144Z,99.90
2022-12-12T09:44:10.905Z,99.90
2022-12-12T09:46:46.080Z,99.90
2022-12-12T09:49:14.492Z,99.90
2022-12-12T09:51:47.423Z,99.90
2022-12-12T09:54:20.700Z,99.90
2022-12-12T09:57:25.631Z,99.90
2022-12-12T10:00:13.055Z,99.90
2022-12-12T10:02:45.970Z,99.90
2022-12-12T10:05:15.838Z,99.90
2022-12-12T10:08:14.571Z,99.90
2022-12-12T10:10:48.310Z,99.90
2022-12-12T10:13:19.212Z,99.90
2022-12-12T10:15:56.381Z,99.70
2022-12-12T10:18:35.409Z,99.70
2022-12-12T10:21:07.111Z,99.90
2022-12-12T10:23:46.286Z,99.90
2022-12-12T10:26:23.912Z,96.50
2022-12-12T10:29:18.621Z,94.60
2022-12-12T10:32:10.521Z,92.40
2022-12-12T10:34:52.588Z,93.30
2022-12-12T10:37:43.121Z,91.60
2022-12-12T10:40:29.000Z,91.60
2022-12-12T10:43:15.357Z,90.50
2022-12-12T10:45:54.727Z,90.10
2022-12-12T10:48:21.708Z,90.50
2022-12-12T10:50:52.650Z,88.40
2022-12-12T10:53:20.846Z,88.70
2022-12-12T10:56:00.566Z,87.00
2022-12-12T10:58:36.661Z,85.60
2022-12-12T11:01:11.269Z,83.70
2022-12-12T11:03:45.561Z,88.90
2022-12-12T11:06:17.890Z,87.80
2022-12-12T11:09:00.797Z,87.70
2022-12-12T11:11:28.988Z,87.40
2022-12-12T11:14:01.594Z,86.80
2022-12-12T11:16:39.713Z,89.00
2022-12-12T11:19:20.511Z,88.50
2022-12-12T11:21:48.408Z,85.90
2022-12-12T11:24:21.474Z,87.00
2022-12-12T11:26:57.375Z,84.00
2022-12-12T11:29:27.654Z,88.10
2022-12-12T11:31:55.921Z,87.50
2022-12-12T11:34:26.319Z,82.30
2022-12-12T11:36:53.964Z,84.60
2022-12-12T11:39:33.968Z,84.40
2022-12-12T11:42:37.050Z,81.70
2022-12-12T11:45:09.923Z,79.70
2022-12-12T11:47:42.078Z,82.90
2022-12-12T11:50:25.364Z,80.60
2022-12-12T11:52:54.974Z,80.60
2022-12-12T11:55:44.667Z,83.30
2022-12-12T11:58:21.176Z,79.80
2022-12-12T12:01:01.535Z,81.10
2022-12-12T12:03:48.834Z,80.70
2022-12-12T12:06:54.806Z,78.70
2022-12-12T12:09:49.311Z,78.70
2022-12-12T12:12:22.877Z,77.50
2022-12-12T12:15:21.485Z,76.80
2022-12-12T12:18:03.127Z,76.30
2022-12-12T12:21:14.683Z,77.40
2022-12-12T12:23:58.036Z,79.20
2022-12-12T12:26:43.571Z,81.20
2022-12-12T12:29:29.119Z,79.10
2022-12-12T12:32:11.107Z,79.40
2022-12-12T12:37:53.417Z,74.80
2022-12-12T12:40:44.646Z,76.00
2022-12-12T12:43:41.947Z,80.40
2022-12-12T12:46:30.618Z,75.60
2022-12-12T12:49:10.267Z,74.60
2022-12-12T12:51:50.655Z,71.20
2022-12-12T12:54:27.575Z,74.80
2022-12-12T12:57:12.454Z,73.90
2022-12-12T12:59:43.445Z,76.90
2022-12-12T13:02:34.814Z,75.70
2022-12-12T13:05:27.177Z,73.90
2022-12-12T13:08:21.728Z,72.20
2022-12-12T13:10:55.409Z,72.70
2022-12-12T13:13:27.396Z,73.90
2022-12-12T13:16:09.575Z,72.50
2022-12-12T13:18:46.382Z,74.10
2022-12-12T13:21:41.241Z,73.90
2022-12-12T13:29:43.432Z,71.90
2022-12-12T13:32:25.601Z,68.40
2022-12-12T13:35:05.696Z,66.90
2022-12-12T13:37:57.844Z,70.00
2022-12-12T13:41:02.042Z,70.30
2022-12-12T13:43:41.621Z,70.50
2022-12-12T13:51:32.484Z,69.50
2022-12-12T13:54:14.531Z,70.20
2022-12-12T14:02:28.227Z,67.10
2022-12-12T14:05:28.909Z,67.40
2022-12-12T14:08:13.859Z,67.00
2022-12-12T14:10:52.648Z,68.90
2022-12-12T14:13:23.006Z,68.40
2022-12-12T14:18:53.947Z,68.70
2022-12-12T14:21:36.093Z,70.30
2022-12-12T14:24:35.083Z,68.80
2022-12-12T14:27:06.529Z,70.30
2022-12-12T14:29:35.228Z,69.90
2022-12-12T14:32:11.623Z,69.70
2022-12-12T14:35:03.699Z,70.10
2022-12-12T14:37:40.260Z,73.10
2022-12-12T14:40:11.195Z,73.20
2022-12-12T14:43:15.562Z,71.30
2022-12-12T14:45:38.983Z,73.60
2022-12-12T14:48:22.293Z,71.80
2022-12-12T14:51:09.531Z,76.10
2022-12-12T14:53:44.148Z,74.80
2022-12-12T14:56:17.742Z,70.20
2022-12-12T14:58:57.213Z,68.70
2022-12-12T15:01:52.290Z,70.80
2022-12-12T15:04:25.666Z,71.00
2022-12-12T15:06:54.684Z,72.00
2022-12-12T15:09:29.580Z,71.10
2022-12-12T15:12:13.111Z,69.90
2022-12-12T15:14:54.607Z,73.20
2022-12-12T15:17:32.538Z,70.30
2022-12-12T15:20:02.987Z,72.10
2022-12-12T15:22:39.290Z,71.90
2022-12-12T15:25:21.365Z,70.80
2022-12-12T15:27:55.542Z,71.20
2022-12-12T15:30:42.025Z,71.30
2022-12-12T15:33:18.203Z,74.80
2022-12-12T15:36:02.883Z,76.20
2022-12-12T15:38:31.338Z,74.80
2022-12-12T15:41:00.052Z,75.20
2022-12-12T15:43:29.302Z,74.60
2022-12-12T15:46:02.646Z,76.80
2022-12-12T15:48:29.509Z,76.80
2022-12-12T15:51:03.351Z,72.30
2022-12-12T15:53:36.793Z,76.70
2022-12-12T15:56:07.974Z,74.40
2022-12-12T15:58:46.874Z,73.50
2022-12-12T16:01:20.390Z,73.30
2022-12-12T16:04:00.152Z,74.80
2022-12-12T16:06:31.481Z,75.00
2022-12-12T16:09:01.309Z,74.40
2022-12-12T16:11:48.151Z,75.00
2022-12-12T16:14:40.641Z,75.90
2022-12-12T16:17:21.414Z,74.60
2022-12-12T16:19:58.310Z,74.10
2022-12-12T16:22:45.890Z,76.30
2022-12-12T16:25:28.357Z,78.10
2022-12-12T16:28:07.170Z,76.20
2022-12-12T16:30:35.327Z,74.90
2022-12-12T16:33:28.619Z,73.90
2022-12-12T16:35:56.162Z,76.20
2022-12-12T16:38:23.430Z,76.60
2022-12-12T16:40:53.586Z,79.10
2022-12-12T16:43:22.271Z,75.80
2022-12-12T16:45:53.756Z,75.30
2022-12-12T16:48:26.517Z,75.90
2022-12-12T16:50:58.642Z,73.10
2022-12-12T16:53:25.598Z,74.70
2022-12-12T16:55:52.871Z,77.90
2022-12-12T16:58:22.568Z,76.40
2022-12-12T17:00:52.839Z,84.20
2022-12-12T17:03:21.271Z,86.00
2022-12-12T17:05:48.733Z,84.00
2022-12-12T17:08:17.199Z,81.70
2022-12-12T17:10:46.081Z,80.50
2022-12-12T17:13:19.467Z,82.70
2022-12-12T17:15:46.705Z,80.90
2022-12-12T17:18:33.861Z,81.00
2022-12-12T17:21:00.937Z,83.10
2022-12-12T17:23:27.969Z,81.50
2022-12-12T17:26:00.998Z,82.60
2022-12-12T17:28:33.095Z,82.30
2022-12-12T17:31:00.071Z,81.90
2022-12-12T17:33:27.117Z,83.70
2022-12-12T17:36:03.239Z,83.20
2022-12-12T17:38:30.709Z,81.20
2022-12-12T17:40:58.230Z,82.30
2022-12-12T17:43:25.701Z,82.80
2022-12-12T17:46:00.417Z,84.10
2022-12-12T17:48:35.309Z,85.10
2022-12-12T17:51:04.310Z,86.80
2022-12-12T17:53:32.957Z,85.50
2022-12-12T17:56:01.298Z,89.00
2022-12-12T17:58:35.787Z,91.10
2022-12-12T18:01:13.543Z,92.10
2022-12-12T18:03:41.923Z,90.10
2022-12-12T18:06:09.294Z,91.30
2022-12-12T18:08:37.174Z,91.20
2022-12-12T18:11:09.304Z,89.80
2022-12-12T18:13:38.788Z,91.60
2022-12-12T18:16:07.157Z,91.40
2022-12-12T18:18:34.818Z,92.00
2022-12-12T18:21:23.504Z,93.00
2022-12-12T18:24:24.053Z,92.90
2022-12-12T18:26:55.533Z,92.90
2022-12-12T18:29:28.433Z,93.30
2022-12-12T18:31:55.541Z,94.20
2022-12-12T18:34:22.845Z,95.20
2022-12-12T18:36:50.053Z,95.20
2022-12-12T18:39:17.745Z,94.30
2022-12-12T18:41:44.623Z,93.90
2022-12-12T18:44:14.176Z,94.60
2022-12-12T18:46:43.382Z,95.00
2022-12-12T18:49:13.921Z,93.50
2022-12-12T18:51:41.439Z,94.50
2022-12-12T18:54:14.180Z,95.10
2022-12-12T18:56:42.205Z,95.20
2022-12-12T18:59:09.166Z,95.10
2022-12-12T19:01:37.127Z,95.40
2022-12-12T19:04:11.667Z,95.40
2022-12-12T19:06:40.316Z,95.70
2022-12-12T19:09:12.605Z,96.10
2022-12-12T19:11:39.459Z,95.40
2022-12-12T19:14:15.860Z,95.60
2022-12-12T19:16:44.089Z,96.40
2022-12-12T19:19:12.504Z,95.30
2022-12-12T19:21:40.181Z,95.60
2022-12-12T19:24:09.437Z,95.80
2022-12-12T19:26:37.476Z,95.70
2022-12-12T19:29:07.117Z,95.10
2022-12-12T19:31:36.183Z,91.70
2022-12-12T19:34:05.070Z,85.90
2022-12-12T19:36:32.667Z,85.50
2022-12-12T19:39:01.029Z,86.70
2022-12-12T19:41:28.117Z,89.70
2022-12-12T19:43:57.453Z,91.00
2022-12-12T19:46:27.647Z,91.50
2022-12-12T19:48:56.426Z,93.40
2022-12-12T19:51:24.856Z,94.70
2022-12-12T19:53:55.465Z,94.90
2022-12-12T19:56:31.572Z,95.20
2022-12-12T19:58:59.847Z,95.20
2022-12-12T20:01:30.342Z,95.00
2022-12-12T20:04:08.922Z,96.00
2022-12-12T20:06:42.113Z,95.50
2022-12-12T20:09:10.273Z,96.10
2022-12-12T20:11:38.007Z,96.30
2022-12-12T20:14:05.194Z,95.90
2022-12-12T20:16:32.172Z,96.20
2022-12-12T20:19:00.581Z,96.20
2022-12-12T20:22:00.215Z,96.20
2022-12-12T20:24:17.510Z,96.50
2022-12-12T20:26:45.470Z,96.00
2022-12-12T20:29:15.869Z,96.50
2022-12-12T20:31:45.548Z,97.10
2022-12-12T20:34:14.093Z,97.60
2022-12-12T20:36:41.546Z,97.80
2022-12-12T20:39:12.691Z,97.50
2022-12-12T20:41:40.071Z,97.90
2022-12-12T20:44:08.645Z,97.70
2022-12-12T20:46:38.166Z,97.10
2022-12-12T20:49:09.403Z,97.20
2022-12-12T20:54:24.899Z,97.60
2022-12-12T20:56:53.424Z,98.20
2022-12-12T20:59:20.319Z,98.70
2022-12-12T21:01:47.926Z,98.60
2022-12-12T21:04:15.322Z,98.10
2022-12-12T21:06:44.705Z,98.40
2022-12-12T21:09:16.254Z,98.80
2022-12-12T21:11:44.690Z,98.70
2022-12-12T21:14:12.402Z,98.90
2022-12-12T21:16:40.008Z,99.60
2022-12-12T21:19:13.693Z,99.80
2022-12-12T21:21:42.591Z,99.50
2022-12-12T21:24:14.986Z,98.80
2022-12-12T21:26:42.270Z,98.70
2022-12-12T21:29:09.271Z,99.00
2022-12-12T21:31:43.427Z,98.40
2022-12-12T21:34:13.531Z,98.60
2022-12-12T21:36:40.303Z,99.30
2022-12-12T21:39:07.265Z,99.90
2022-12-12T21:41:35.169Z,99.80
2022-12-12T21:44:02.155Z,99.30
2022-12-12T21:46:30.164Z,99.20
2022-12-12T21:49:16.782Z,99.50
2022-12-12T21:51:43.954Z,99.40
2022-12-12T21:54:12.808Z,98.90
2022-12-12T21:56:40.836Z,99.10
2022-12-12T21:59:08.249Z,99.20
2022-12-12T22:01:35.167Z,99.80
2022-12-12T22:04:02.335Z,99.90
2022-12-12T22:06:34.804Z,99.90
2022-12-12T22:09:04.456Z,99.50
2022-12-12T22:11:41.377Z,99.90
2022-12-12T22:14:14.840Z,99.90
2022-12-12T22:16:41.682Z,99.90
2022-12-12T22:19:13.764Z,99.90
2022-12-12T22:21:40.955Z,99.90
2022-12-12T22:24:08.170Z,99.90
2022-12-12T22:26:37.529Z,99.90
2022-12-12T22:29:07.362Z,99.80
2022-12-12T22:31:37.492Z,99.80
2022-12-12T22:34:11.209Z,99.90
2022-12-12T22:36:39.773Z,99.80
2022-12-12T22:39:08.448Z,99.90
2022-12-12T22:41:35.269Z,99.90
2022-12-12T22:44:04.166Z,99.90
2022-12-12T22:46:31.880Z,99.90
2022-12-12T22:49:01.235Z,99.90
2022-12-12T22:51:31.247Z,99.90
2022-12-12T22:54:00.303Z,99.90
2022-12-12T22:56:31.143Z,99.90
2022-12-12T22:58:57.983Z,99.90
2022-12-12T23:01:25.163Z,99.90
2022-12-12T23:03:52.206Z,99.90
2022-12-12T23:06:29.382Z,99.90
2022-12-12T23:08:59.314Z,99.90
2022-12-12T23:11:28.070Z,99.90
2022-12-12T23:13:58.815Z,99.90
2022-12-12T23:16:27.533Z,99.90
2022-12-12T23:18:55.000Z,99.90
2022-12-12T23:21:23.867Z,99.90
2022-12-12T23:23:51.220Z,99.90
2022-12-12T23:26:24.227Z,99.90
2022-12-12T23:28:51.591Z,99.90
2022-12-12T23:31:24.725Z,99.90
2022-12-12T23:33:56.824Z,99.90
2022-12-12T23:36:24.617Z,99.90
2022-12-12T23:38:58.398Z,99.90
2022-12-12T23:41:26.154Z,99.90
2022-12-12T23:43:53.341Z,99.90
2022-12-12T23:46:31.463Z,99.90
2022-12-12T23:48:59.636Z,99.90
2022-12-12T23:51:28.325Z,99.90
2022-12-12T23:53:56.684Z,99.90
2022-12-12T23:56:23.903Z,99.90
2022-12-12T23:58:52.892Z,99.90
